»·PEaware :: AAL343 KSLC-KGJT

AAL343 :: KSLC-KGJT

FLIGHT INFORMATION

Flight Status: Arrived
Operator:
American Airlines
More flights by this operator :: More flights under this callsign
Pilot: James W. (12414)
Aircraft: BOEING 737-800
(B738)
More flights by this aircraft type
Origin: KSLC Salt Lake City Intl
United States
Destination: KGJT Walker
United States
More flights between these airports :: More routes between these airports
Route: NSIGN5 MTU JNC
File this flight plan on PilotEdge
Remarks:
Altitude:
(Current/Filed)
310ft
Speed:
(Current/Filed)
450kts
Departed: 27-Dec-17 12:00 PM
Arrived: 27-Dec-17 12:42 PM
Distance/Time
Traveled:
187nm/0:42
Distance/Time
To Go:
Arrived

Flight Plot

Page will automatically refresh every two minutes.

Flight plan parsing failed; only flown route is shown


Map Options




Map Legend


Flown Route
Filed Route
Departure Airport
Arrival Airport
Navaid (VOR, NDB)
Fix

Horizontal Profiles

Position Reports

Time Latitude Longitude Heading Altitude Ground
Speed
27-Dec-17 11:42 40.784647 -111.977989 360 4234ft 0kts
27-Dec-17 11:43 40.784647 -111.977989 360 4234ft 0kts
27-Dec-17 11:44 40.784647 -111.977989 360 4234ft 0kts
27-Dec-17 11:45 40.784647 -111.977989 360 4234ft 0kts
27-Dec-17 11:46 40.784647 -111.977989 360 4234ft 0kts
27-Dec-17 11:47 40.784647 -111.977989 360 4234ft 0kts
27-Dec-17 11:48 40.784647 -111.977989 360 4234ft 0kts
27-Dec-17 11:49 40.784647 -111.977989 360 4234ft 0kts
27-Dec-17 11:50 40.784647 -111.977989 360 4234ft 0kts
27-Dec-17 11:51 40.784647 -111.977989 360 4234ft 0kts
27-Dec-17 11:52 40.784647 -111.977989 360 4234ft 0kts
27-Dec-17 11:53 40.784647 -111.977989 360 4234ft 0kts
27-Dec-17 11:54 40.784647 -111.977989 359 4234ft 0kts
27-Dec-17 11:55 40.784647 -111.977989 359 4235ft 0kts
27-Dec-17 11:56 40.784505 -111.977989 359 4235ft 2kts
27-Dec-17 11:57 40.784177 -111.978163 95 4235ft 2kts
27-Dec-17 11:58 40.784180 -111.978219 89 4235ft 0kts
27-Dec-17 11:59 40.784180 -111.978219 89 4235ft 0kts
27-Dec-17 12:00 40.784180 -111.978219 89 4235ft 0kts
27-Dec-17 12:01 40.784138 -111.977162 94 4234ft 8kts
27-Dec-17 12:02 40.780293 -111.975949 174 4234ft 16kts
27-Dec-17 12:03 40.776755 -111.975051 175 4235ft 11kts
27-Dec-17 12:04 40.774712 -111.974752 148 4234ft 0kts
27-Dec-17 12:05 40.775162 -111.973280 17 4234ft 7kts
27-Dec-17 12:06 40.799903 -111.976127 353 4432ft 202kts
27-Dec-17 12:07 40.853049 -111.983043 351 7034ft 205kts
27-Dec-17 12:08 40.912812 -111.991234 350 8942ft 239kts
27-Dec-17 12:09 40.985506 -112.001252 349 11019ft 292kts
27-Dec-17 12:10 41.068936 -112.009843 5 13016ft 315kts
27-Dec-17 12:11 41.136189 -111.934758 58 15000ft 371kts
27-Dec-17 12:12 41.131441 -111.803027 125 16961ft 419kts
27-Dec-17 12:13 41.031708 -111.735449 173 19034ft 427kts
27-Dec-17 12:14 40.915584 -111.690111 166 21062ft 451kts
27-Dec-17 12:15 40.798429 -111.642337 167 23004ft 467kts
27-Dec-17 12:16 40.695533 -111.539272 119 24971ft 497kts
27-Dec-17 12:17 40.678379 -111.364652 77 26976ft 492kts
27-Dec-17 12:18 40.642433 -111.195236 126 28906ft 502kts
27-Dec-17 12:19 40.581937 -111.027201 110 29494ft 535kts
27-Dec-17 12:20 40.537193 -110.875224 109 31071ft 536kts
27-Dec-17 12:21 40.474997 -110.662106 108 31313ft 536kts
27-Dec-17 12:22 40.422291 -110.480605 110 31317ft 535kts
27-Dec-17 12:23 40.344091 -110.359634 149 31324ft 531kts
27-Dec-17 12:24 40.218384 -110.215310 137 31307ft 535kts
27-Dec-17 12:25 40.130032 -110.102999 138 31307ft 535kts
27-Dec-17 12:26 40.005078 -109.950448 138 30103ft 534kts
27-Dec-17 12:27 39.914979 -109.840706 138 29225ft 534kts
27-Dec-17 12:28 39.810206 -109.713048 139 27734ft 498kts
27-Dec-17 12:29 39.711342 -109.592283 139 26134ft 488kts
27-Dec-17 12:30 39.618741 -109.479058 139 23913ft 428kts
27-Dec-17 12:31 39.538514 -109.380874 140 21692ft 380kts
27-Dec-17 12:32 39.462692 -109.287984 140 19554ft 380kts
27-Dec-17 12:33 39.386547 -109.194579 140 17366ft 377kts
27-Dec-17 12:34 39.311769 -109.102771 141 15196ft 371kts
27-Dec-17 12:35 39.238346 -109.012555 141 13016ft 362kts
27-Dec-17 12:36 39.167823 -108.924263 129 11012ft 347kts
27-Dec-17 12:37 39.128112 -108.824728 119 10995ft 282kts
27-Dec-17 12:38 39.097745 -108.744018 121 10671ft 242kts
27-Dec-17 12:39 39.066656 -108.662278 116 8661ft 261kts
27-Dec-17 12:40 39.035735 -108.584483 116 7755ft 211kts
27-Dec-17 12:41 39.009988 -108.521512 116 6859ft 172kts
27-Dec-17 12:42 38.988771 -108.465232 86 6885ft 175kts
27-Dec-17 12:43 39.018006 -108.421075 36 6919ft 165kts
27-Dec-17 12:44 39.057447 -108.399655 346 6903ft 154kts
27-Dec-17 12:45 39.081138 -108.440397 293 6372ft 149kts
27-Dec-17 12:46 39.102415 -108.485132 306 5334ft 151kts
27-Dec-17 12:47 39.124839 -108.525843 303 4853ft 72kts
27-Dec-17 12:48 39.125092 -108.528796 123 4842ft 14kts

Navigation Log

Ident Type
Flight plan parsing failed, navigation log unavailable